sensor_id;sensor_type;location;lat;lon;timestamp;P1;durP1;ratioP1;P2;durP2;ratioP2
2874;SDS011;1445;52.600;13.328;2024-02-16T00:00:51;2.00;;;1.67;;
2874;SDS011;1445;52.600;13.328;2024-02-16T00:03:19;2.63;;;1.42;;
2874;SDS011;1445;52.600;13.328;2024-02-16T00:05:44;0.98;;;0.77;;
2874;SDS011;1445;52.600;13.328;2024-02-16T00:08:11;1.08;;;0.85;;
2874;SDS011;1445;52.600;13.328;2024-02-16T00:10:38;2.78;;;1.50;;
2874;SDS011;1445;52.600;13.328;2024-02-16T00:13:03;2.22;;;2.03;;
2874;SDS011;1445;52.600;13.328;2024-02-16T00:15:29;1.30;;;1.20;;
2874;SDS011;1445;52.600;13.328;2024-02-16T00:17:54;1.98;;;1.50;;
2874;SDS011;1445;52.600;13.328;2024-02-16T00:20:20;1.50;;;1.33;;
2874;SDS011;1445;52.600;13.328;2024-02-16T00:22:47;2.15;;;1.00;;
2874;SDS011;1445;52.600;13.328;2024-02-16T00:25:13;1.25;;;1.05;;
2874;SDS011;1445;52.600;13.328;2024-02-16T00:27:38;1.80;;;1.40;;
2874;SDS011;1445;52.600;13.328;2024-02-16T00:30:04;1.17;;;1.08;;
2874;SDS011;1445;52.600;13.328;2024-02-16T00:32:30;1.92;;;1.52;;
2874;SDS011;1445;52.600;13.328;2024-02-16T00:34:56;1.08;;;0.98;;
2874;SDS011;1445;52.600;13.328;2024-02-16T00:37:22;2.53;;;1.38;;
2874;SDS011;1445;52.600;13.328;2024-02-16T00:39:49;3.42;;;1.23;;
2874;SDS011;1445;52.600;13.328;2024-02-16T00:42:15;3.40;;;1.55;;
2874;SDS011;1445;52.600;13.328;2024-02-16T00:44:40;1.52;;;1.17;;
2874;SDS011;1445;52.600;13.328;2024-02-16T00:47:05;0.73;;;0.73;;
2874;SDS011;1445;52.600;13.328;2024-02-16T00:49:31;2.75;;;1.48;;
2874;SDS011;1445;52.600;13.328;2024-02-16T00:51:57;3.50;;;2.17;;
2874;SDS011;1445;52.600;13.328;2024-02-16T00:54:23;3.38;;;2.35;;
2874;SDS011;1445;52.600;13.328;2024-02-16T00:59:39;3.67;;;1.45;;
2874;SDS011;1445;52.600;13.328;2024-02-16T01:02:05;4.50;;;1.98;;
2874;SDS011;1445;52.600;13.328;2024-02-16T01:04:32;8.05;;;2.85;;
2874;SDS011;1445;52.600;13.328;2024-02-16T01:06:58;2.17;;;1.90;;
2874;SDS011;1445;52.600;13.328;2024-02-16T01:09:23;6.55;;;1.85;;
2874;SDS011;1445;52.600;13.328;2024-02-16T01:11:49;7.07;;;2.53;;
2874;SDS011;1445;52.600;13.328;2024-02-16T01:14:14;3.90;;;1.67;;
2874;SDS011;1445;52.600;13.328;2024-02-16T01:16:40;2.05;;;1.75;;
2874;SDS011;1445;52.600;13.328;2024-02-16T01:19:05;2.60;;;2.35;;
2874;SDS011;1445;52.600;13.328;2024-02-16T01:21:32;2.85;;;2.25;;
2874;SDS011;1445;52.600;13.328;2024-02-16T01:23:58;3.80;;;1.98;;
2874;SDS011;1445;52.600;13.328;2024-02-16T01:26:24;1.73;;;1.60;;
2874;SDS011;1445;52.600;13.328;2024-02-16T01:28:50;2.50;;;1.85;;
2874;SDS011;1445;52.600;13.328;2024-02-16T01:31:15;4.57;;;2.42;;
2874;SDS011;1445;52.600;13.328;2024-02-16T01:33:44;4.20;;;2.95;;
2874;SDS011;1445;52.600;13.328;2024-02-16T01:36:09;2.75;;;2.55;;
2874;SDS011;1445;52.600;13.328;2024-02-16T01:38:35;2.80;;;2.53;;
2874;SDS011;1445;52.600;13.328;2024-02-16T01:41:01;2.83;;;2.58;;
2874;SDS011;1445;52.600;13.328;2024-02-16T01:43:27;3.97;;;2.63;;
2874;SDS011;1445;52.600;13.328;2024-02-16T01:45:53;2.28;;;2.08;;
2874;SDS011;1445;52.600;13.328;2024-02-16T01:48:18;2.50;;;2.30;;
2874;SDS011;1445;52.600;13.328;2024-02-16T01:50:45;3.92;;;3.15;;
2874;SDS011;1445;52.600;13.328;2024-02-16T01:53:13;5.68;;;3.72;;
2874;SDS011;1445;52.600;13.328;2024-02-16T01:55:44;4.95;;;3.10;;
2874;SDS011;1445;52.600;13.328;2024-02-16T01:58:10;4.82;;;2.95;;
2874;SDS011;1445;52.600;13.328;2024-02-16T02:00:36;4.00;;;3.30;;
2874;SDS011;1445;52.600;13.328;2024-02-16T02:03:02;6.63;;;3.25;;
2874;SDS011;1445;52.600;13.328;2024-02-16T02:05:28;3.03;;;2.40;;
2874;SDS011;1445;52.600;13.328;2024-02-16T02:07:54;9.57;;;2.92;;
2874;SDS011;1445;52.600;13.328;2024-02-16T02:10:19;8.70;;;3.40;;
2874;SDS011;1445;52.600;13.328;2024-02-16T02:12:45;6.22;;;2.97;;
2874;SDS011;1445;52.600;13.328;2024-02-16T02:15:10;3.67;;;2.92;;
2874;SDS011;1445;52.600;13.328;2024-02-16T02:17:36;2.72;;;2.50;;
2874;SDS011;1445;52.600;13.328;2024-02-16T02:20:02;4.63;;;2.55;;
2874;SDS011;1445;52.600;13.328;2024-02-16T02:22:29;5.28;;;2.60;;
2874;SDS011;1445;52.600;13.328;2024-02-16T02:24:54;3.10;;;2.90;;
2874;SDS011;1445;52.600;13.328;2024-02-16T02:27:23;5.47;;;2.95;;
2874;SDS011;1445;52.600;13.328;2024-02-16T02:29:48;6.25;;;2.80;;
2874;SDS011;1445;52.600;13.328;2024-02-16T02:32:14;4.18;;;2.83;;
2874;SDS011;1445;52.600;13.328;2024-02-16T02:34:40;3.50;;;2.53;;
2874;SDS011;1445;52.600;13.328;2024-02-16T02:37:05;4.05;;;1.95;;
2874;SDS011;1445;52.600;13.328;2024-02-16T02:39:31;3.70;;;2.00;;
2874;SDS011;1445;52.600;13.328;2024-02-16T02:41:57;3.33;;;1.95;;
2874;SDS011;1445;52.600;13.328;2024-02-16T02:44:23;10.63;;;2.38;;
2874;SDS011;1445;52.600;13.328;2024-02-16T02:46:51;6.05;;;2.30;;
2874;SDS011;1445;52.600;13.328;2024-02-16T02:49:17;3.28;;;2.58;;
2874;SDS011;1445;52.600;13.328;2024-02-16T02:51:43;11.68;;;2.88;;
2874;SDS011;1445;52.600;13.328;2024-02-16T02:54:08;5.95;;;3.47;;
2874;SDS011;1445;52.600;13.328;2024-02-16T02:56:34;4.07;;;2.80;;
2874;SDS011;1445;52.600;13.328;2024-02-16T02:59:00;5.82;;;3.08;;
2874;SDS011;1445;52.600;13.328;2024-02-16T03:01:25;3.92;;;3.03;;
2874;SDS011;1445;52.600;13.328;2024-02-16T03:03:51;5.45;;;4.15;;
2874;SDS011;1445;52.600;13.328;2024-02-16T03:06:19;3.10;;;2.80;;
2874;SDS011;1445;52.600;13.328;2024-02-16T03:08:45;5.00;;;4.07;;
2874;SDS011;1445;52.600;13.328;2024-02-16T03:11:11;11.10;;;2.00;;
2874;SDS011;1445;52.600;13.328;2024-02-16T03:13:36;3.25;;;2.53;;
2874;SDS011;1445;52.600;13.328;2024-02-16T03:16:02;3.25;;;2.88;;
2874;SDS011;1445;52.600;13.328;2024-02-16T03:18:31;4.75;;;2.72;;
2874;SDS011;1445;52.600;13.328;2024-02-16T03:20:59;2.22;;;1.88;;
2874;SDS011;1445;52.600;13.328;2024-02-16T03:23:25;2.33;;;1.73;;
2874;SDS011;1445;52.600;13.328;2024-02-16T03:25:50;2.08;;;1.92;;
2874;SDS011;1445;52.600;13.328;2024-02-16T03:28:16;2.05;;;1.70;;
2874;SDS011;1445;52.600;13.328;2024-02-16T03:30:41;4.18;;;3.35;;
2874;SDS011;1445;52.600;13.328;2024-02-16T03:33:08;5.68;;;3.33;;
2874;SDS011;1445;52.600;13.328;2024-02-16T03:35:33;5.07;;;3.50;;
2874;SDS011;1445;52.600;13.328;2024-02-16T03:37:59;4.22;;;3.83;;
2874;SDS011;1445;52.600;13.328;2024-02-16T03:40:25;2.13;;;1.95;;
2874;SDS011;1445;52.600;13.328;2024-02-16T03:42:51;5.53;;;2.92;;
2874;SDS011;1445;52.600;13.328;2024-02-16T03:45:17;6.28;;;3.53;;
2874;SDS011;1445;52.600;13.328;2024-02-16T03:47:42;3.30;;;2.75;;
2874;SDS011;1445;52.600;13.328;2024-02-16T03:50:08;3.70;;;3.03;;
2874;SDS011;1445;52.600;13.328;2024-02-16T03:52:34;5.50;;;3.85;;
2874;SDS011;1445;52.600;13.328;2024-02-16T03:55:00;2.35;;;2.05;;
2874;SDS011;1445;52.600;13.328;2024-02-16T03:57:25;4.05;;;2.78;;
2874;SDS011;1445;52.600;13.328;2024-02-16T03:59:51;3.67;;;2.67;;
2874;SDS011;1445;52.600;13.328;2024-02-16T04:02:16;3.42;;;2.65;;
2874;SDS011;1445;52.600;13.328;2024-02-16T04:04:42;3.58;;;2.58;;
2874;SDS011;1445;52.600;13.328;2024-02-16T04:07:07;3.63;;;3.33;;
2874;SDS011;1445;52.600;13.328;2024-02-16T04:09:33;2.83;;;2.63;;
2874;SDS011;1445;52.600;13.328;2024-02-16T04:12:01;5.57;;;4.03;;
2874;SDS011;1445;52.600;13.328;2024-02-16T04:14:26;6.63;;;4.15;;
2874;SDS011;1445;52.600;13.328;2024-02-16T04:16:52;6.35;;;2.75;;
2874;SDS011;1445;52.600;13.328;2024-02-16T04:19:18;2.25;;;2.05;;
2874;SDS011;1445;52.600;13.328;2024-02-16T04:21:43;7.00;;;2.60;;
2874;SDS011;1445;52.600;13.328;2024-02-16T04:24:09;5.65;;;2.55;;
2874;SDS011;1445;52.600;13.328;2024-02-16T04:26:35;23.17;;;2.80;;
2874;SDS011;1445;52.600;13.328;2024-02-16T04:29:00;3.50;;;2.95;;
2874;SDS011;1445;52.600;13.328;2024-02-16T04:31:26;4.30;;;3.22;;
2874;SDS011;1445;52.600;13.328;2024-02-16T04:33:51;4.88;;;2.90;;
2874;SDS011;1445;52.600;13.328;2024-02-16T04:36:18;4.75;;;3.45;;
2874;SDS011;1445;52.600;13.328;2024-02-16T04:38:43;3.67;;;3.15;;
2874;SDS011;1445;52.600;13.328;2024-02-16T04:41:09;3.05;;;2.75;;
2874;SDS011;1445;52.600;13.328;2024-02-16T04:43:34;3.50;;;2.65;;
2874;SDS011;1445;52.600;13.328;2024-02-16T04:46:00;2.63;;;2.28;;
2874;SDS011;1445;52.600;13.328;2024-02-16T04:48:26;3.75;;;3.08;;
2874;SDS011;1445;52.600;13.328;2024-02-16T04:50:51;2.85;;;2.53;;
2874;SDS011;1445;52.600;13.328;2024-02-16T04:53:16;3.25;;;2.42;;
2874;SDS011;1445;52.600;13.328;2024-02-16T04:55:42;4.30;;;2.35;;
2874;SDS011;1445;52.600;13.328;2024-02-16T04:58:08;2.30;;;2.17;;
2874;SDS011;1445;52.600;13.328;2024-02-16T05:00:37;3.13;;;2.55;;
2874;SDS011;1445;52.600;13.328;2024-02-16T05:03:03;3.20;;;2.90;;
2874;SDS011;1445;52.600;13.328;2024-02-16T05:05:28;2.40;;;2.22;;
2874;SDS011;1445;52.600;13.328;2024-02-16T05:07:53;6.65;;;3.55;;
2874;SDS011;1445;52.600;13.328;2024-02-16T05:10:19;2.40;;;2.20;;
2874;SDS011;1445;52.600;13.328;2024-02-16T05:12:45;3.08;;;2.45;;
2874;SDS011;1445;52.600;13.328;2024-02-16T05:15:11;4.07;;;2.78;;
2874;SDS011;1445;52.600;13.328;2024-02-16T05:17:40;2.63;;;2.17;;
2874;SDS011;1445;52.600;13.328;2024-02-16T05:20:12;5.07;;;2.95;;
2874;SDS011;1445;52.600;13.328;2024-02-16T05:22:41;2.60;;;2.35;;
2874;SDS011;1445;52.600;13.328;2024-02-16T05:25:08;4.75;;;2.58;;
2874;SDS011;1445;52.600;13.328;2024-02-16T05:27:34;5.15;;;2.42;;
2874;SDS011;1445;52.600;13.328;2024-02-16T05:30:00;4.75;;;3.25;;
2874;SDS011;1445;52.600;13.328;2024-02-16T05:32:25;1.85;;;1.58;;
2874;SDS011;1445;52.600;13.328;2024-02-16T05:34:51;3.90;;;2.58;;
2874;SDS011;1445;52.600;13.328;2024-02-16T05:37:17;5.15;;;3.53;;
2874;SDS011;1445;52.600;13.328;2024-02-16T05:39:43;2.72;;;2.53;;
2874;SDS011;1445;52.600;13.328;2024-02-16T05:42:19;7.32;;;2.95;;
2874;SDS011;1445;52.600;13.328;2024-02-16T05:44:47;1.85;;;1.65;;
2874;SDS011;1445;52.600;13.328;2024-02-16T05:47:12;2.35;;;2.15;;
2874;SDS011;1445;52.600;13.328;2024-02-16T05:49:38;5.03;;;2.72;;
2874;SDS011;1445;52.600;13.328;2024-02-16T05:52:04;3.13;;;2.28;;
2874;SDS011;1445;52.600;13.328;2024-02-16T05:54:42;1.52;;;1.42;;
2874;SDS011;1445;52.600;13.328;2024-02-16T05:57:09;6.97;;;3.53;;
2874;SDS011;1445;52.600;13.328;2024-02-16T05:59:34;2.53;;;2.30;;
2874;SDS011;1445;52.600;13.328;2024-02-16T06:02:00;3.08;;;2.80;;
2874;SDS011;1445;52.600;13.328;2024-02-16T06:04:25;3.08;;;2.80;;
2874;SDS011;1445;52.600;13.328;2024-02-16T06:06:51;3.05;;;1.77;;
2874;SDS011;1445;52.600;13.328;2024-02-16T06:09:18;4.82;;;2.65;;
2874;SDS011;1445;52.600;13.328;2024-02-16T06:11:44;5.03;;;2.92;;
2874;SDS011;1445;52.600;13.328;2024-02-16T06:14:09;2.58;;;2.38;;
2874;SDS011;1445;52.600;13.328;2024-02-16T06:16:35;3.63;;;2.85;;
2874;SDS011;1445;52.600;13.328;2024-02-16T06:19:00;3.88;;;1.98;;
2874;SDS011;1445;52.600;13.328;2024-02-16T06:21:26;3.83;;;2.22;;
2874;SDS011;1445;52.600;13.328;2024-02-16T06:23:51;1.38;;;1.27;;
2874;SDS011;1445;52.600;13.328;2024-02-16T06:26:16;2.45;;;2.25;;
2874;SDS011;1445;52.600;13.328;2024-02-16T06:28:42;2.55;;;1.75;;
2874;SDS011;1445;52.600;13.328;2024-02-16T06:31:07;5.78;;;3.80;;
2874;SDS011;1445;52.600;13.328;2024-02-16T06:33:33;2.40;;;2.20;;
2874;SDS011;1445;52.600;13.328;2024-02-16T06:35:58;2.40;;;1.50;;
2874;SDS011;1445;52.600;13.328;2024-02-16T06:38:23;4.07;;;2.47;;
2874;SDS011;1445;52.600;13.328;2024-02-16T06:40:49;3.45;;;2.20;;
2874;SDS011;1445;52.600;13.328;2024-02-16T06:43:14;2.60;;;2.25;;
2874;SDS011;1445;52.600;13.328;2024-02-16T06:45:40;6.85;;;2.28;;
2874;SDS011;1445;52.600;13.328;2024-02-16T06:48:05;2.17;;;1.98;;
2874;SDS011;1445;52.600;13.328;2024-02-16T06:50:31;3.50;;;2.70;;
2874;SDS011;1445;52.600;13.328;2024-02-16T06:52:56;3.42;;;2.10;;
2874;SDS011;1445;52.600;13.328;2024-02-16T06:55:22;3.08;;;2.83;;
2874;SDS011;1445;52.600;13.328;2024-02-16T06:57:47;1.38;;;1.27;;
2874;SDS011;1445;52.600;13.328;2024-02-16T07:00:13;4.32;;;2.33;;
2874;SDS011;1445;52.600;13.328;2024-02-16T07:02:40;2.83;;;1.90;;
2874;SDS011;1445;52.600;13.328;2024-02-16T07:05:07;2.90;;;2.13;;
2874;SDS011;1445;52.600;13.328;2024-02-16T07:07:33;2.05;;;1.80;;
2874;SDS011;1445;52.600;13.328;2024-02-16T07:10:01;3.95;;;3.35;;
2874;SDS011;1445;52.600;13.328;2024-02-16T07:12:27;5.03;;;2.60;;
2874;SDS011;1445;52.600;13.328;2024-02-16T07:14:52;2.85;;;2.38;;
2874;SDS011;1445;52.600;13.328;2024-02-16T07:17:18;4.60;;;2.42;;
2874;SDS011;1445;52.600;13.328;2024-02-16T07:19:44;4.28;;;2.75;;
2874;SDS011;1445;52.600;13.328;2024-02-16T07:22:09;3.88;;;2.08;;
2874;SDS011;1445;52.600;13.328;2024-02-16T07:24:35;3.70;;;2.92;;
2874;SDS011;1445;52.600;13.328;2024-02-16T07:27:00;3.85;;;1.73;;
2874;SDS011;1445;52.600;13.328;2024-02-16T07:29:27;3.13;;;2.83;;
2874;SDS011;1445;52.600;13.328;2024-02-16T07:31:53;2.10;;;1.77;;
2874;SDS011;1445;52.600;13.328;2024-02-16T07:34:18;2.45;;;2.25;;
2874;SDS011;1445;52.600;13.328;2024-02-16T07:36:44;2.20;;;1.65;;
2874;SDS011;1445;52.600;13.328;2024-02-16T07:39:10;3.65;;;1.90;;
2874;SDS011;1445;52.600;13.328;2024-02-16T07:41:37;3.45;;;2.38;;
2874;SDS011;1445;52.600;13.328;2024-02-16T07:44:03;5.78;;;3.78;;
2874;SDS011;1445;52.600;13.328;2024-02-16T07:46:29;3.47;;;2.40;;
2874;SDS011;1445;52.600;13.328;2024-02-16T07:48:55;2.75;;;2.08;;
2874;SDS011;1445;52.600;13.328;2024-02-16T07:51:20;3.00;;;2.33;;
2874;SDS011;1445;52.600;13.328;2024-02-16T07:53:46;2.88;;;2.10;;
2874;SDS011;1445;52.600;13.328;2024-02-16T07:56:12;4.53;;;2.90;;
2874;SDS011;1445;52.600;13.328;2024-02-16T07:58:37;4.05;;;3.00;;
2874;SDS011;1445;52.600;13.328;2024-02-16T08:01:03;3.53;;;2.45;;
2874;SDS011;1445;52.600;13.328;2024-02-16T08:03:28;4.22;;;2.20;;
2874;SDS011;1445;52.600;13.328;2024-02-16T08:05:54;4.63;;;3.08;;
2874;SDS011;1445;52.600;13.328;2024-02-16T08:08:21;3.03;;;2.72;;
2874;SDS011;1445;52.600;13.328;2024-02-16T08:10:48;4.35;;;2.58;;
2874;SDS011;1445;52.600;13.328;2024-02-16T08:13:13;2.67;;;2.47;;
2874;SDS011;1445;52.600;13.328;2024-02-16T08:15:39;3.55;;;2.17;;
2874;SDS011;1445;52.600;13.328;2024-02-16T08:18:05;4.57;;;3.03;;
2874;SDS011;1445;52.600;13.328;2024-02-16T08:20:31;2.30;;;2.10;;
2874;SDS011;1445;52.600;13.328;2024-02-16T08:22:56;2.53;;;1.70;;
2874;SDS011;1445;52.600;13.328;2024-02-16T08:25:22;4.25;;;2.47;;
2874;SDS011;1445;52.600;13.328;2024-02-16T08:27:48;2.70;;;2.20;;
2874;SDS011;1445;52.600;13.328;2024-02-16T08:30:17;1.63;;;1.52;;
2874;SDS011;1445;52.600;13.328;2024-02-16T08:32:43;6.53;;;2.75;;
2874;SDS011;1445;52.600;13.328;2024-02-16T08:35:08;3.35;;;2.53;;
2874;SDS011;1445;52.600;13.328;2024-02-16T08:37:52;3.83;;;2.85;;
2874;SDS011;1445;52.600;13.328;2024-02-16T08:40:17;2.75;;;1.95;;
2874;SDS011;1445;52.600;13.328;2024-02-16T08:42:43;3.92;;;2.20;;
2874;SDS011;1445;52.600;13.328;2024-02-16T08:45:08;4.20;;;2.10;;
2874;SDS011;1445;52.600;13.328;2024-02-16T08:47:34;3.30;;;1.52;;
2874;SDS011;1445;52.600;13.328;2024-02-16T08:49:59;7.97;;;2.30;;
2874;SDS011;1445;52.600;13.328;2024-02-16T08:52:25;2.65;;;1.92;;
2874;SDS011;1445;52.600;13.328;2024-02-16T08:54:51;3.20;;;1.25;;
2874;SDS011;1445;52.600;13.328;2024-02-16T08:57:16;3.50;;;2.38;;
2874;SDS011;1445;52.600;13.328;2024-02-16T08:59:42;1.85;;;1.40;;
2874;SDS011;1445;52.600;13.328;2024-02-16T09:02:09;2.33;;;2.13;;
2874;SDS011;1445;52.600;13.328;2024-02-16T09:04:35;5.63;;;1.52;;
2874;SDS011;1445;52.600;13.328;2024-02-16T09:07:00;2.75;;;1.83;;
2874;SDS011;1445;52.600;13.328;2024-02-16T09:09:26;1.23;;;1.13;;
2874;SDS011;1445;52.600;13.328;2024-02-16T09:11:51;2.72;;;1.63;;
2874;SDS011;1445;52.600;13.328;2024-02-16T09:14:17;2.00;;;1.38;;
2874;SDS011;1445;52.600;13.328;2024-02-16T09:16:43;3.42;;;2.50;;
2874;SDS011;1445;52.600;13.328;2024-02-16T09:19:09;1.75;;;1.60;;
2874;SDS011;1445;52.600;13.328;2024-02-16T09:21:35;2.38;;;1.17;;
2874;SDS011;1445;52.600;13.328;2024-02-16T09:24:00;2.45;;;1.95;;
2874;SDS011;1445;52.600;13.328;2024-02-16T09:26:27;6.10;;;2.05;;
2874;SDS011;1445;52.600;13.328;2024-02-16T09:28:56;3.63;;;1.90;;
2874;SDS011;1445;52.600;13.328;2024-02-16T09:31:22;1.75;;;1.05;;
2874;SDS011;1445;52.600;13.328;2024-02-16T09:33:48;1.80;;;1.67;;
2874;SDS011;1445;52.600;13.328;2024-02-16T09:36:13;2.78;;;1.98;;
2874;SDS011;1445;52.600;13.328;2024-02-16T09:38:39;3.50;;;2.25;;
2874;SDS011;1445;52.600;13.328;2024-02-16T09:41:07;1.83;;;1.52;;
2874;SDS011;1445;52.600;13.328;2024-02-16T09:43:33;1.15;;;1.05;;
2874;SDS011;1445;52.600;13.328;2024-02-16T09:45:58;1.98;;;1.30;;
2874;SDS011;1445;52.600;13.328;2024-02-16T09:48:28;1.63;;;1.52;;
2874;SDS011;1445;52.600;13.328;2024-02-16T09:50:54;2.15;;;1.50;;
2874;SDS011;1445;52.600;13.328;2024-02-16T09:53:21;2.35;;;2.08;;
2874;SDS011;1445;52.600;13.328;2024-02-16T09:55:50;2.72;;;1.63;;
2874;SDS011;1445;52.600;13.328;2024-02-16T09:58:16;2.25;;;1.02;;
2874;SDS011;1445;52.600;13.328;2024-02-16T10:00:49;0.95;;;0.77;;
2874;SDS011;1445;52.600;13.328;2024-02-16T10:03:29;1.90;;;1.02;;
2874;SDS011;1445;52.600;13.328;2024-02-16T10:06:10;3.28;;;1.67;;
2874;SDS011;1445;52.600;13.328;2024-02-16T10:11:24;1.45;;;0.98;;
2874;SDS011;1445;52.600;13.328;2024-02-16T10:13:58;1.80;;;1.60;;
2874;SDS011;1445;52.600;13.328;2024-02-16T10:16:24;3.05;;;1.25;;
2874;SDS011;1445;52.600;13.328;2024-02-16T10:18:50;1.95;;;1.00;;
2874;SDS011;1445;52.600;13.328;2024-02-16T10:21:26;1.35;;;1.25;;
2874;SDS011;1445;52.600;13.328;2024-02-16T10:24:11;0.47;;;0.47;;
2874;SDS011;1445;52.600;13.328;2024-02-16T10:26:39;1.60;;;1.23;;
2874;SDS011;1445;52.600;13.328;2024-02-16T10:29:05;1.08;;;1.02;;
2874;SDS011;1445;52.600;13.328;2024-02-16T10:31:34;2.78;;;1.75;;
2874;SDS011;1445;52.600;13.328;2024-02-16T10:34:00;2.53;;;1.80;;
2874;SDS011;1445;52.600;13.328;2024-02-16T10:36:30;2.70;;;1.65;;
2874;SDS011;1445;52.600;13.328;2024-02-16T10:39:00;1.13;;;0.98;;
2874;SDS011;1445;52.600;13.328;2024-02-16T10:41:30;1.05;;;0.98;;
2874;SDS011;1445;52.600;13.328;2024-02-16T10:43:59;1.15;;;1.05;;
2874;SDS011;1445;52.600;13.328;2024-02-16T10:46:26;1.60;;;1.40;;
2874;SDS011;1445;52.600;13.328;2024-02-16T10:48:52;1.73;;;0.85;;
2874;SDS011;1445;52.600;13.328;2024-02-16T10:52:00;4.18;;;1.10;;
2874;SDS011;1445;52.600;13.328;2024-02-16T10:54:15;0.45;;;0.45;;
2874;SDS011;1445;52.600;13.328;2024-02-16T10:56:44;1.90;;;1.17;;
2874;SDS011;1445;52.600;13.328;2024-02-16T10:59:10;23.58;;;1.67;;
2874;SDS011;1445;52.600;13.328;2024-02-16T11:01:39;1.80;;;1.38;;
2874;SDS011;1445;52.600;13.328;2024-02-16T11:04:18;1.65;;;1.23;;
2874;SDS011;1445;52.600;13.328;2024-02-16T11:06:53;5.28;;;1.83;;
2874;SDS011;1445;52.600;13.328;2024-02-16T11:12:00;0.90;;;0.82;;
2874;SDS011;1445;52.600;13.328;2024-02-16T11:14:36;1.38;;;1.15;;
2874;SDS011;1445;52.600;13.328;2024-02-16T11:17:02;1.75;;;1.17;;
2874;SDS011;1445;52.600;13.328;2024-02-16T11:19:33;2.00;;;1.05;;
2874;SDS011;1445;52.600;13.328;2024-02-16T11:22:02;1.02;;;0.80;;
2874;SDS011;1445;52.600;13.328;2024-02-16T11:27:01;2.03;;;1.40;;
2874;SDS011;1445;52.600;13.328;2024-02-16T11:29:32;1.92;;;0.93;;
2874;SDS011;1445;52.600;13.328;2024-02-16T11:31:59;0.90;;;0.82;;
2874;SDS011;1445;52.600;13.328;2024-02-16T11:34:26;6.45;;;1.30;;
2874;SDS011;1445;52.600;13.328;2024-02-16T11:36:53;0.90;;;0.90;;
2874;SDS011;1445;52.600;13.328;2024-02-16T11:39:19;1.77;;;1.27;;
2874;SDS011;1445;52.600;13.328;2024-02-16T11:41:45;1.65;;;0.85;;
2874;SDS011;1445;52.600;13.328;2024-02-16T11:44:12;2.22;;;1.80;;
2874;SDS011;1445;52.600;13.328;2024-02-16T11:46:38;1.35;;;1.25;;
2874;SDS011;1445;52.600;13.328;2024-02-16T11:49:07;2.22;;;1.35;;
2874;SDS011;1445;52.600;13.328;2024-02-16T11:51:33;2.78;;;1.55;;
2874;SDS011;1445;52.600;13.328;2024-02-16T11:53:59;0.82;;;0.82;;
2874;SDS011;1445;52.600;13.328;2024-02-16T11:56:25;2.45;;;1.20;;
2874;SDS011;1445;52.600;13.328;2024-02-16T11:58:51;2.97;;;1.38;;
2874;SDS011;1445;52.600;13.328;2024-02-16T12:01:17;1.02;;;1.02;;
2874;SDS011;1445;52.600;13.328;2024-02-16T12:03:43;1.13;;;1.02;;
2874;SDS011;1445;52.600;13.328;2024-02-16T12:06:08;0.95;;;0.90;;
2874;SDS011;1445;52.600;13.328;2024-02-16T12:08:34;0.80;;;0.73;;
2874;SDS011;1445;52.600;13.328;2024-02-16T12:11:00;3.15;;;1.60;;
2874;SDS011;1445;52.600;13.328;2024-02-16T12:13:27;6.90;;;1.77;;
2874;SDS011;1445;52.600;13.328;2024-02-16T12:15:52;1.58;;;1.30;;
2874;SDS011;1445;52.600;13.328;2024-02-16T12:18:19;10.07;;;1.52;;
2874;SDS011;1445;52.600;13.328;2024-02-16T12:21:00;2.95;;;1.10;;
2874;SDS011;1445;52.600;13.328;2024-02-16T12:23:26;2.20;;;1.30;;
2874;SDS011;1445;52.600;13.328;2024-02-16T12:25:52;2.92;;;0.98;;
2874;SDS011;1445;52.600;13.328;2024-02-16T12:28:23;0.80;;;0.73;;
2874;SDS011;1445;52.600;13.328;2024-02-16T12:30:50;1.15;;;1.05;;
2874;SDS011;1445;52.600;13.328;2024-02-16T12:33:15;0.70;;;0.70;;
2874;SDS011;1445;52.600;13.328;2024-02-16T12:35:41;1.02;;;0.98;;
2874;SDS011;1445;52.600;13.328;2024-02-16T12:38:07;1.00;;;0.93;;
2874;SDS011;1445;52.600;13.328;2024-02-16T12:40:32;0.43;;;0.43;;
2874;SDS011;1445;52.600;13.328;2024-02-16T12:42:58;1.73;;;0.82;;
2874;SDS011;1445;52.600;13.328;2024-02-16T12:45:23;1.48;;;0.93;;
2874;SDS011;1445;52.600;13.328;2024-02-16T12:47:49;1.17;;;1.08;;
2874;SDS011;1445;52.600;13.328;2024-02-16T12:50:15;0.77;;;0.77;;
2874;SDS011;1445;52.600;13.328;2024-02-16T12:52:42;0.60;;;0.60;;
2874;SDS011;1445;52.600;13.328;2024-02-16T12:55:08;0.60;;;0.60;;
2874;SDS011;1445;52.600;13.328;2024-02-16T12:57:36;0.45;;;0.45;;
2874;SDS011;1445;52.600;13.328;2024-02-16T13:00:03;1.50;;;1.20;;
2874;SDS011;1445;52.600;13.328;2024-02-16T13:02:29;0.50;;;0.43;;
2874;SDS011;1445;52.600;13.328;2024-02-16T13:04:54;1.73;;;0.80;;
2874;SDS011;1445;52.600;13.328;2024-02-16T13:07:20;1.52;;;1.42;;
2874;SDS011;1445;52.600;13.328;2024-02-16T13:09:46;2.47;;;1.48;;
2874;SDS011;1445;52.600;13.328;2024-02-16T13:12:11;2.90;;;1.50;;
2874;SDS011;1445;52.600;13.328;2024-02-16T13:14:36;1.30;;;1.15;;
2874;SDS011;1445;52.600;13.328;2024-02-16T13:17:02;1.02;;;0.55;;
2874;SDS011;1445;52.600;13.328;2024-02-16T13:19:29;1.02;;;0.93;;
2874;SDS011;1445;52.600;13.328;2024-02-16T13:21:54;0.70;;;0.70;;
2874;SDS011;1445;52.600;13.328;2024-02-16T13:24:19;1.70;;;0.93;;
2874;SDS011;1445;52.600;13.328;2024-02-16T13:26:45;0.60;;;0.52;;
2874;SDS011;1445;52.600;13.328;2024-02-16T13:29:10;0.60;;;0.60;;
2874;SDS011;1445;52.600;13.328;2024-02-16T13:31:36;9.02;;;1.05;;
2874;SDS011;1445;52.600;13.328;2024-02-16T13:34:02;1.20;;;1.10;;
2874;SDS011;1445;52.600;13.328;2024-02-16T13:36:27;0.85;;;0.68;;
2874;SDS011;1445;52.600;13.328;2024-02-16T13:38:53;0.95;;;0.80;;
2874;SDS011;1445;52.600;13.328;2024-02-16T13:41:18;0.60;;;0.60;;
2874;SDS011;1445;52.600;13.328;2024-02-16T13:43:44;0.65;;;0.65;;
2874;SDS011;1445;52.600;13.328;2024-02-16T13:46:09;1.55;;;0.82;;
2874;SDS011;1445;52.600;13.328;2024-02-16T13:48:35;0.50;;;0.50;;
2874;SDS011;1445;52.600;13.328;2024-02-16T13:51:02;0.85;;;0.82;;
2874;SDS011;1445;52.600;13.328;2024-02-16T13:53:28;0.80;;;0.80;;
2874;SDS011;1445;52.600;13.328;2024-02-16T13:55:55;1.20;;;0.98;;
2874;SDS011;1445;52.600;13.328;2024-02-16T13:58:20;2.53;;;0.57;;
2874;SDS011;1445;52.600;13.328;2024-02-16T14:00:46;1.35;;;0.65;;
2874;SDS011;1445;52.600;13.328;2024-02-16T14:03:14;0.88;;;0.88;;
2874;SDS011;1445;52.600;13.328;2024-02-16T14:05:40;1.20;;;0.85;;
2874;SDS011;1445;52.600;13.328;2024-02-16T14:08:06;0.57;;;0.57;;
2874;SDS011;1445;52.600;13.328;2024-02-16T14:10:34;1.23;;;0.80;;
2874;SDS011;1445;52.600;13.328;2024-02-16T14:13:00;1.05;;;0.93;;
2874;SDS011;1445;52.600;13.328;2024-02-16T14:15:25;0.43;;;0.43;;
2874;SDS011;1445;52.600;13.328;2024-02-16T14:17:50;4.95;;;0.82;;
2874;SDS011;1445;52.600;13.328;2024-02-16T14:20:16;0.50;;;0.50;;
2874;SDS011;1445;52.600;13.328;2024-02-16T14:22:41;0.63;;;0.60;;
2874;SDS011;1445;52.600;13.328;2024-02-16T14:25:16;1.83;;;1.15;;
2874;SDS011;1445;52.600;13.328;2024-02-16T14:27:42;1.25;;;0.93;;
2874;SDS011;1445;52.600;13.328;2024-02-16T14:30:08;0.40;;;0.40;;
2874;SDS011;1445;52.600;13.328;2024-02-16T14:32:34;0.95;;;0.60;;
2874;SDS011;1445;52.600;13.328;2024-02-16T14:35:00;1.23;;;0.98;;
2874;SDS011;1445;52.600;13.328;2024-02-16T14:37:25;0.93;;;0.68;;
2874;SDS011;1445;52.600;13.328;2024-02-16T14:39:53;0.85;;;0.85;;
2874;SDS011;1445;52.600;13.328;2024-02-16T14:42:22;1.08;;;0.82;;
2874;SDS011;1445;52.600;13.328;2024-02-16T14:44:48;3.85;;;0.88;;
2874;SDS011;1445;52.600;13.328;2024-02-16T14:47:14;1.95;;;1.10;;
2874;SDS011;1445;52.600;13.328;2024-02-16T14:49:39;1.77;;;1.00;;
2874;SDS011;1445;52.600;13.328;2024-02-16T14:52:05;1.67;;;0.70;;
2874;SDS011;1445;52.600;13.328;2024-02-16T14:54:32;0.82;;;0.82;;
2874;SDS011;1445;52.600;13.328;2024-02-16T14:56:57;0.38;;;0.38;;
2874;SDS011;1445;52.600;13.328;2024-02-16T14:59:23;2.28;;;0.73;;
2874;SDS011;1445;52.600;13.328;2024-02-16T15:01:49;0.98;;;0.80;;
2874;SDS011;1445;52.600;13.328;2024-02-16T15:04:14;4.47;;;0.70;;
2874;SDS011;1445;52.600;13.328;2024-02-16T15:06:42;2.70;;;0.98;;